This is the latest recevied weather packets stored in our database for station/object AA4XD. If no packets are shown the sender has not sent any weather packets the latest 10 day(s).
| Time | Temp. | Humidity | Pressure | Rain* | Wind** | Luminosity | Snow |
|---|---|---|---|---|---|---|---|
| 1777931711 | 30° C | 28% | 1012.9 hPa | 0 mm | - | 223 W/m² | - |
| 1777931409 | 30° C | 28% | 1012.9 hPa | 0 mm | - | 167 W/m² | - |
| 1777931104 | 30.56° C | 26% | 1012.9 hPa | 0 mm | - | 164 W/m² | - |
| 1777930801 | 31.11° C | 25% | 1013.1 hPa | 0 mm | - | 318 W/m² | - |
| 1777930496 | 31.11° C | 26% | 1012.8 hPa | 0 mm | - | 420 W/m² | - |
| 1777930195 | 30.56° C | 26% | 1012.7 hPa | 0 mm | - | 439 W/m² | - |
| 1777929890 | 31.11° C | 25% | 1012.9 hPa | 0 mm | - | 459 W/m² | - |
| 1777929588 | 31.67° C | 25% | 1013 hPa | 0 mm | - | 480 W/m² | - |
| 1777929284 | 31.11° C | 26% | 1013 hPa | 0 mm | - | 502 W/m² | - |
| 1777928982 | 31.11° C | 27% | 1013 hPa | 0 mm | - | 524 W/m² | - |
| 1777928678 | 31.67° C | 26% | 1013.3 hPa | 0 mm | - | 548 W/m² | - |
| 1777928375 | 32.22° C | 24% | 1013.1 hPa | 0 mm | - | 566 W/m² | - |
| 1777928073 | 31.67° C | 27% | 1013.2 hPa | 0 mm | - | 583 W/m² | - |
| 1777927771 | 31.67° C | 26% | 1013.2 hPa | 0 mm | - | 604 W/m² | - |
| 1777927469 | 31.11° C | 28% | 1013.2 hPa | 0 mm | - | 618 W/m² | - |
| 1777927168 | 30.56° C | 29% | 1013.3 hPa | 0 mm | - | 636 W/m² | - |
| 1777926865 | 30.56° C | 28% | 1013.3 hPa | 0 mm | - | 654 W/m² | - |
| 1777926561 | 30.56° C | 27% | 1013.3 hPa | 0 mm | - | 678 W/m² | - |
| 1777926258 | 30.56° C | 29% | 1013.3 hPa | 0 mm | - | 725 W/m² | - |
| 1777925954 | 30.56° C | 29% | 1013.8 hPa | 0 mm | - | 725 W/m² | - |
| 1777925652 | 31.67° C | 28% | 1013.8 hPa | 0 mm | - | 730 W/m² | - |
| 1777925349 | 31.67° C | 27% | 1013.5 hPa | 0 mm | - | 743 W/m² | - |
| 1777925046 | 30.56° C | 28% | 1013.7 hPa | 0 mm | - | 753 W/m² | - |
| 1777924743 | 30° C | 29% | 1013.9 hPa | 0 mm | - | 772 W/m² | - |
| 1777924438 | 29.44° C | 29% | 1013.8 hPa | 0 mm | - | 789 W/m² | - |
* Rain latest hour (hover to see other rain measurements)
** Current wind speed in m/s (hover to see current wind gust speed)